EZY2272 EGGD-LFPG
Flight info
| Callsign | EZY2272 |
|---|---|
| Flight time | 0h 48m |
| Altitude | 29000 |
| Route | YORQI DCT NUCHU L607 ALHAD UN859 VAPID L18 MID Y803 SFD/N0380F250 UM605 BIBAX |
| Aircraft | A320/M-SDE3FGHIRWY/LB1 |
Departure
| Time | 2026-05-08 12:42 |
|---|---|
| Airport | Bristol Airport (EGGD) |
Arrival
| Time | 2026-05-08 13:31 |
|---|---|
| Airport | Charles de Gaulle International Airport (LFPG) |
| Time | Latitude | Longitude | Altitude | Speed | Heading |
|---|---|---|---|---|---|
| 2026-05-08 12:24 | 51.38549 | -2.70493 | 610 ft | 0 kts | 356° |
| 2026-05-08 12:33 | 51.38540 | -2.70492 | 609 ft | 4 kts | 356° |
| 2026-05-08 12:33 | 51.38519 | -2.70490 | 614 ft | 0 kts | 356° |
| 2026-05-08 12:37 | 51.38520 | -2.70489 | 614 ft | 0 kts | 5° |
| 2026-05-08 12:37 | 51.38521 | -2.70480 | 623 ft | 1 kts | 71° |
| 2026-05-08 12:37 | 51.38516 | -2.70475 | 621 ft | 1 kts | 129° |
| 2026-05-08 12:38 | 51.38491 | -2.70469 | 617 ft | 7 kts | 199° |
| 2026-05-08 12:38 | 51.38478 | -2.70567 | 610 ft | 12 kts | 271° |
| 2026-05-08 12:38 | 51.38474 | -2.70738 | 610 ft | 18 kts | 267° |
| 2026-05-08 12:38 | 51.38469 | -2.70881 | 614 ft | 20 kts | 266° |
| 2026-05-08 12:39 | 51.38458 | -2.71131 | 615 ft | 25 kts | 266° |
| 2026-05-08 12:39 | 51.38444 | -2.71513 | 616 ft | 28 kts | 266° |
| 2026-05-08 12:39 | 51.38435 | -2.71745 | 606 ft | 33 kts | 267° |
| 2026-05-08 12:39 | 51.38429 | -2.72128 | 606 ft | 35 kts | 266° |
| 2026-05-08 12:40 | 51.38414 | -2.72506 | 612 ft | 34 kts | 266° |
| 2026-05-08 12:40 | 51.38399 | -2.72886 | 605 ft | 33 kts | 266° |
| 2026-05-08 12:40 | 51.38388 | -2.73171 | 608 ft | 21 kts | 266° |
| 2026-05-08 12:40 | 51.38366 | -2.73294 | 620 ft | 8 kts | 239° |
| 2026-05-08 12:41 | 51.38335 | -2.73332 | 618 ft | 6 kts | 205° |
| 2026-05-08 12:41 | 51.38291 | -2.73340 | 618 ft | 7 kts | 179° |
| 2026-05-08 12:41 | 51.38242 | -2.73327 | 621 ft | 6 kts | 175° |
| 2026-05-08 12:41 | 51.38218 | -2.73322 | 634 ft | 4 kts | 163° |
| 2026-05-08 12:42 | 51.38214 | -2.73267 | 626 ft | 9 kts | 85° |
| 2026-05-08 12:42 | 51.38228 | -2.72895 | 629 ft | 73 kts | 86° |
| 2026-05-08 12:42 | 51.38277 | -2.71626 | 610 ft | 151 kts | 88° |
| 2026-05-08 12:42 | 51.38336 | -2.69825 | 1260 ft | 166 kts | 90° |
| 2026-05-08 12:43 | 51.38395 | -2.67949 | 2149 ft | 174 kts | 90° |
| 2026-05-08 12:43 | 51.38453 | -2.65912 | 2616 ft | 193 kts | 91° |
| 2026-05-08 12:43 | 51.38518 | -2.63638 | 2894 ft | 218 kts | 90° |
| 2026-05-08 12:43 | 51.38593 | -2.61074 | 3342 ft | 242 kts | 89° |
| 2026-05-08 12:44 | 51.38684 | -2.58270 | 3901 ft | 260 kts | 88° |
| 2026-05-08 12:44 | 51.39238 | -2.55480 | 4722 ft | 272 kts | 56° |
| 2026-05-08 12:44 | 51.40646 | -2.53416 | 5575 ft | 279 kts | 35° |
| 2026-05-08 12:44 | 51.42316 | -2.51780 | 6464 ft | 284 kts | 28° |
| 2026-05-08 12:45 | 51.44070 | -2.50296 | 7306 ft | 287 kts | 27° |
| 2026-05-08 12:45 | 51.45853 | -2.48795 | 8163 ft | 291 kts | 28° |
| 2026-05-08 12:45 | 51.47624 | -2.47187 | 9016 ft | 295 kts | 30° |
| 2026-05-08 12:45 | 51.49395 | -2.45484 | 9874 ft | 299 kts | 33° |
| 2026-05-08 12:46 | 51.50918 | -2.43209 | 10614 ft | 302 kts | 57° |
| 2026-05-08 12:46 | 51.51760 | -2.40141 | 11359 ft | 302 kts | 81° |
| 2026-05-08 12:46 | 51.51819 | -2.36775 | 11994 ft | 310 kts | 98° |
| 2026-05-08 12:46 | 51.51585 | -2.33195 | 12309 ft | 333 kts | 98° |
| 2026-05-08 12:47 | 51.51313 | -2.29429 | 12842 ft | 344 kts | 98° |
| 2026-05-08 12:47 | 51.51035 | -2.25593 | 13556 ft | 348 kts | 98° |
| 2026-05-08 12:47 | 51.50759 | -2.21715 | 14241 ft | 352 kts | 98° |
| 2026-05-08 12:47 | 51.50483 | -2.17799 | 14889 ft | 355 kts | 98° |
| 2026-05-08 12:48 | 51.50205 | -2.13851 | 15542 ft | 357 kts | 98° |
| 2026-05-08 12:48 | 51.49926 | -2.09869 | 16187 ft | 361 kts | 98° |
| 2026-05-08 12:48 | 51.49645 | -2.05849 | 16848 ft | 364 kts | 98° |
| 2026-05-08 12:48 | 51.49360 | -2.01805 | 17488 ft | 367 kts | 98° |
| 2026-05-08 12:49 | 51.49068 | -1.97719 | 18138 ft | 370 kts | 99° |
| 2026-05-08 12:49 | 51.48774 | -1.93596 | 18690 ft | 373 kts | 98° |
| 2026-05-08 12:49 | 51.48474 | -1.89436 | 19189 ft | 378 kts | 99° |
| 2026-05-08 12:49 | 51.48169 | -1.85226 | 19661 ft | 382 kts | 98° |
| 2026-05-08 12:50 | 51.47824 | -1.80975 | 20132 ft | 386 kts | 104° |
| 2026-05-08 12:50 | 51.46909 | -1.76932 | 20564 ft | 388 kts | 121° |
| 2026-05-08 12:50 | 51.45565 | -1.73158 | 21049 ft | 393 kts | 121° |
| 2026-05-08 12:50 | 51.44186 | -1.69351 | 21512 ft | 397 kts | 121° |
| 2026-05-08 12:51 | 51.42785 | -1.65504 | 21969 ft | 401 kts | 121° |
| 2026-05-08 12:51 | 51.39946 | -1.57691 | 22875 ft | 410 kts | 121° |
| 2026-05-08 12:51 | 51.38505 | -1.53727 | 23306 ft | 414 kts | 121° |
| 2026-05-08 12:52 | 51.37045 | -1.49720 | 23733 ft | 418 kts | 121° |
| 2026-05-08 12:52 | 51.34088 | -1.41622 | 24473 ft | 425 kts | 121° |
| 2026-05-08 12:52 | 51.32588 | -1.37526 | 24830 ft | 428 kts | 121° |
| 2026-05-08 12:53 | 51.31074 | -1.33404 | 25163 ft | 432 kts | 121° |
| 2026-05-08 12:53 | 51.29565 | -1.29307 | 25521 ft | 435 kts | 121° |
| 2026-05-08 12:53 | 51.28025 | -1.25126 | 25892 ft | 438 kts | 121° |
| 2026-05-08 12:53 | 51.26478 | -1.20921 | 26262 ft | 440 kts | 121° |
| 2026-05-08 12:54 | 51.24921 | -1.16690 | 26617 ft | 443 kts | 121° |
| 2026-05-08 12:54 | 51.23352 | -1.12441 | 26972 ft | 446 kts | 121° |
| 2026-05-08 12:54 | 51.21766 | -1.08165 | 27322 ft | 449 kts | 121° |
| 2026-05-08 12:54 | 51.20170 | -1.03881 | 27663 ft | 451 kts | 121° |
| 2026-05-08 12:55 | 51.18562 | -0.99557 | 28012 ft | 454 kts | 121° |
| 2026-05-08 12:55 | 51.16949 | -0.95213 | 28393 ft | 457 kts | 121° |
| 2026-05-08 12:55 | 51.15323 | -0.90846 | 28745 ft | 459 kts | 120° |
| 2026-05-08 12:55 | 51.13683 | -0.86462 | 29030 ft | 462 kts | 120° |
| 2026-05-08 12:56 | 51.12050 | -0.82107 | 29078 ft | 451 kts | 120° |
| 2026-05-08 12:56 | 51.10461 | -0.77880 | 29084 ft | 441 kts | 120° |
| 2026-05-08 12:56 | 51.07338 | -0.69573 | 29082 ft | 436 kts | 120° |
| 2026-05-08 12:57 | 51.04220 | -0.61308 | 29081 ft | 436 kts | 121° |
| 2026-05-08 12:57 | 51.01131 | -0.53131 | 29094 ft | 436 kts | 121° |
| 2026-05-08 12:58 | 50.97982 | -0.44817 | 29095 ft | 435 kts | 121° |
| 2026-05-08 12:58 | 50.94852 | -0.36600 | 29077 ft | 435 kts | 121° |
| 2026-05-08 12:59 | 50.91716 | -0.28399 | 29074 ft | 435 kts | 121° |
| 2026-05-08 12:59 | 50.88582 | -0.20209 | 29068 ft | 435 kts | 121° |
| 2026-05-08 13:00 | 50.85443 | -0.12027 | 29068 ft | 435 kts | 121° |
| 2026-05-08 13:00 | 50.82288 | -0.03857 | 29068 ft | 435 kts | 121° |
| 2026-05-08 13:01 | 50.79125 | 0.04310 | 29094 ft | 436 kts | 120° |
| 2026-05-08 13:01 | 50.75698 | 0.12197 | 29092 ft | 436 kts | 132° |
| 2026-05-08 13:02 | 50.71146 | 0.18500 | 29089 ft | 436 kts | 141° |
| 2026-05-08 13:02 | 50.66433 | 0.24521 | 29077 ft | 436 kts | 141° |
| 2026-05-08 13:03 | 50.61727 | 0.30545 | 29068 ft | 436 kts | 141° |
| 2026-05-08 13:03 | 50.57034 | 0.36519 | 29070 ft | 437 kts | 141° |
| 2026-05-08 13:04 | 50.52297 | 0.42526 | 29069 ft | 437 kts | 141° |
| 2026-05-08 13:04 | 50.47556 | 0.48524 | 29084 ft | 438 kts | 141° |
| 2026-05-08 13:05 | 50.42804 | 0.54533 | 29081 ft | 439 kts | 141° |
| 2026-05-08 13:05 | 50.38042 | 0.60534 | 29065 ft | 440 kts | 141° |
| 2026-05-08 13:06 | 50.33277 | 0.66521 | 28867 ft | 435 kts | 141° |
| 2026-05-08 13:06 | 50.30932 | 0.69465 | 28580 ft | 430 kts | 141° |
| 2026-05-08 13:06 | 50.28610 | 0.72379 | 28309 ft | 426 kts | 141° |
| 2026-05-08 13:07 | 50.26304 | 0.75263 | 28037 ft | 423 kts | 141° |
| 2026-05-08 13:07 | 50.24015 | 0.78117 | 27760 ft | 417 kts | 141° |
| 2026-05-08 13:07 | 50.21757 | 0.80930 | 27328 ft | 413 kts | 141° |
| 2026-05-08 13:07 | 50.19522 | 0.83711 | 26896 ft | 408 kts | 141° |
| 2026-05-08 13:08 | 50.17316 | 0.86455 | 26465 ft | 404 kts | 142° |
| 2026-05-08 13:08 | 50.15125 | 0.89181 | 26046 ft | 400 kts | 142° |
| 2026-05-08 13:08 | 50.12960 | 0.91871 | 25619 ft | 398 kts | 142° |
| 2026-05-08 13:08 | 50.10802 | 0.94546 | 25169 ft | 395 kts | 142° |
| 2026-05-08 13:09 | 50.08658 | 0.97200 | 24718 ft | 392 kts | 142° |
| 2026-05-08 13:09 | 50.06527 | 0.99810 | 24258 ft | 389 kts | 145° |
| 2026-05-08 13:09 | 50.04252 | 1.01942 | 23865 ft | 383 kts | 155° |
| 2026-05-08 13:09 | 50.01868 | 1.03727 | 23488 ft | 378 kts | 155° |
| 2026-05-08 13:10 | 49.99491 | 1.05515 | 23137 ft | 372 kts | 155° |
| 2026-05-08 13:10 | 49.97200 | 1.07243 | 22803 ft | 369 kts | 155° |
| 2026-05-08 13:10 | 49.94866 | 1.09001 | 22456 ft | 369 kts | 155° |
| 2026-05-08 13:10 | 49.92578 | 1.10719 | 22128 ft | 369 kts | 155° |
| 2026-05-08 13:11 | 49.90272 | 1.12451 | 21782 ft | 367 kts | 155° |
| 2026-05-08 13:11 | 49.87983 | 1.14172 | 21455 ft | 364 kts | 155° |
| 2026-05-08 13:11 | 49.85708 | 1.15881 | 21116 ft | 361 kts | 155° |
| 2026-05-08 13:11 | 49.83453 | 1.17569 | 20794 ft | 358 kts | 155° |
| 2026-05-08 13:12 | 49.81219 | 1.19237 | 20472 ft | 355 kts | 155° |
| 2026-05-08 13:12 | 49.78999 | 1.20894 | 20150 ft | 353 kts | 155° |
| 2026-05-08 13:12 | 49.76798 | 1.22535 | 19827 ft | 350 kts | 155° |
| 2026-05-08 13:12 | 49.74613 | 1.24163 | 19512 ft | 347 kts | 155° |
| 2026-05-08 13:13 | 49.72432 | 1.25786 | 19194 ft | 344 kts | 155° |
| 2026-05-08 13:13 | 49.70296 | 1.27376 | 18884 ft | 341 kts | 155° |
| 2026-05-08 13:13 | 49.68168 | 1.28960 | 18575 ft | 338 kts | 156° |
| 2026-05-08 13:13 | 49.66056 | 1.30528 | 18255 ft | 334 kts | 156° |
| 2026-05-08 13:14 | 49.63968 | 1.32075 | 17931 ft | 332 kts | 156° |
| 2026-05-08 13:14 | 49.61895 | 1.33608 | 17628 ft | 330 kts | 156° |
| 2026-05-08 13:14 | 49.59823 | 1.35138 | 17325 ft | 329 kts | 156° |
| 2026-05-08 13:14 | 49.57763 | 1.36661 | 17029 ft | 328 kts | 155° |
| 2026-05-08 13:15 | 49.55715 | 1.38178 | 16731 ft | 326 kts | 155° |
| 2026-05-08 13:15 | 49.53675 | 1.39687 | 16422 ft | 325 kts | 155° |
| 2026-05-08 13:15 | 49.51643 | 1.41187 | 16130 ft | 323 kts | 155° |
| 2026-05-08 13:15 | 49.49625 | 1.42671 | 15850 ft | 320 kts | 156° |
| 2026-05-08 13:16 | 49.47614 | 1.44127 | 15572 ft | 318 kts | 156° |
| 2026-05-08 13:16 | 49.45619 | 1.45584 | 15295 ft | 317 kts | 156° |
| 2026-05-08 13:16 | 49.43635 | 1.47048 | 14979 ft | 316 kts | 155° |
| 2026-05-08 13:16 | 49.41689 | 1.48492 | 14694 ft | 314 kts | 156° |
| 2026-05-08 13:17 | 49.39695 | 1.49963 | 14405 ft | 312 kts | 156° |
| 2026-05-08 13:17 | 49.37795 | 1.51446 | 14143 ft | 311 kts | 148° |
| 2026-05-08 13:17 | 49.36160 | 1.53628 | 13905 ft | 312 kts | 137° |
| 2026-05-08 13:17 | 49.34634 | 1.55983 | 13640 ft | 311 kts | 136° |
| 2026-05-08 13:18 | 49.33113 | 1.58343 | 13367 ft | 309 kts | 136° |
| 2026-05-08 13:18 | 49.31612 | 1.60682 | 13105 ft | 308 kts | 135° |
| 2026-05-08 13:18 | 49.30112 | 1.63020 | 12836 ft | 306 kts | 135° |
| 2026-05-08 13:18 | 49.28618 | 1.65340 | 12569 ft | 306 kts | 136° |
| 2026-05-08 13:19 | 49.27121 | 1.67658 | 12316 ft | 306 kts | 136° |
| 2026-05-08 13:19 | 49.25631 | 1.69963 | 12052 ft | 303 kts | 136° |
| 2026-05-08 13:19 | 49.24152 | 1.72248 | 11803 ft | 300 kts | 135° |
| 2026-05-08 13:19 | 49.22693 | 1.74503 | 11466 ft | 298 kts | 135° |
| 2026-05-08 13:20 | 49.21236 | 1.76755 | 11081 ft | 297 kts | 135° |
| 2026-05-08 13:20 | 49.19779 | 1.79004 | 10699 ft | 297 kts | 136° |
| 2026-05-08 13:20 | 49.18323 | 1.81244 | 10306 ft | 297 kts | 135° |
| 2026-05-08 13:20 | 49.16867 | 1.83482 | 9946 ft | 296 kts | 135° |
| 2026-05-08 13:21 | 49.15433 | 1.85681 | 9710 ft | 289 kts | 135° |
| 2026-05-08 13:21 | 49.14019 | 1.87853 | 9286 ft | 289 kts | 135° |
| 2026-05-08 13:21 | 49.12604 | 1.90024 | 8884 ft | 288 kts | 135° |
| 2026-05-08 13:21 | 49.11198 | 1.92182 | 8493 ft | 286 kts | 135° |
| 2026-05-08 13:22 | 49.09799 | 1.94325 | 8103 ft | 284 kts | 135° |
| 2026-05-08 13:22 | 49.08412 | 1.96446 | 7663 ft | 281 kts | 135° |
| 2026-05-08 13:22 | 49.07043 | 1.98541 | 7073 ft | 276 kts | 135° |
| 2026-05-08 13:22 | 49.06155 | 1.99899 | 6790 ft | 270 kts | 135° |
| 2026-05-08 13:23 | 49.04437 | 2.02524 | 6438 ft | 250 kts | 135° |
| 2026-05-08 13:23 | 49.03226 | 2.04373 | 6363 ft | 244 kts | 135° |
| 2026-05-08 13:23 | 49.02033 | 2.06190 | 6268 ft | 242 kts | 135° |
| 2026-05-08 13:23 | 49.01244 | 2.07391 | 6187 ft | 242 kts | 135° |
| 2026-05-08 13:24 | 49.00057 | 2.09198 | 6084 ft | 240 kts | 134° |
| 2026-05-08 13:24 | 48.98877 | 2.10995 | 5985 ft | 239 kts | 134° |
| 2026-05-08 13:24 | 48.97771 | 2.12880 | 5858 ft | 238 kts | 122° |
| 2026-05-08 13:24 | 48.97149 | 2.15177 | 5637 ft | 235 kts | 99° |
| 2026-05-08 13:25 | 48.97118 | 2.17636 | 5356 ft | 232 kts | 84° |
| 2026-05-08 13:25 | 48.97262 | 2.20064 | 5054 ft | 230 kts | 84° |
| 2026-05-08 13:25 | 48.97403 | 2.22478 | 4751 ft | 228 kts | 84° |
| 2026-05-08 13:25 | 48.97540 | 2.24888 | 4443 ft | 229 kts | 84° |
| 2026-05-08 13:26 | 48.97677 | 2.27305 | 4132 ft | 229 kts | 84° |
| 2026-05-08 13:26 | 48.97812 | 2.29700 | 3818 ft | 224 kts | 85° |
| 2026-05-08 13:26 | 48.97942 | 2.32017 | 3523 ft | 215 kts | 85° |
| 2026-05-08 13:26 | 48.98066 | 2.34233 | 3256 ft | 207 kts | 84° |
| 2026-05-08 13:27 | 48.98184 | 2.36360 | 2986 ft | 194 kts | 84° |
| 2026-05-08 13:27 | 48.98294 | 2.38340 | 2721 ft | 182 kts | 85° |
| 2026-05-08 13:27 | 48.98397 | 2.40203 | 2480 ft | 171 kts | 84° |
| 2026-05-08 13:27 | 48.98494 | 2.41965 | 2260 ft | 163 kts | 84° |
| 2026-05-08 13:28 | 48.98589 | 2.43671 | 2040 ft | 161 kts | 84° |
| 2026-05-08 13:28 | 48.98680 | 2.45343 | 1839 ft | 155 kts | 84° |
| 2026-05-08 13:28 | 48.98768 | 2.46927 | 1652 ft | 143 kts | 84° |
| 2026-05-08 13:28 | 48.98848 | 2.48406 | 1461 ft | 138 kts | 85° |
| 2026-05-08 13:29 | 48.98924 | 2.49853 | 1262 ft | 136 kts | 87° |
| 2026-05-08 13:29 | 48.98997 | 2.51277 | 1077 ft | 136 kts | 84° |
| 2026-05-08 13:29 | 48.99078 | 2.52727 | 908 ft | 137 kts | 83° |
| 2026-05-08 13:29 | 48.99156 | 2.54167 | 702 ft | 136 kts | 85° |
| 2026-05-08 13:30 | 48.99235 | 2.55616 | 541 ft | 137 kts | 83° |
| 2026-05-08 13:30 | 48.99317 | 2.57071 | 381 ft | 137 kts | 83° |
| 2026-05-08 13:30 | 48.99392 | 2.58406 | 354 ft | 113 kts | 84° |
| 2026-05-08 13:30 | 48.99441 | 2.59351 | 359 ft | 65 kts | 85° |
| 2026-05-08 13:31 | 48.99468 | 2.59777 | 353 ft | 24 kts | 74° |
| 2026-05-08 13:31 | 48.99516 | 2.59914 | 356 ft | 12 kts | 52° |
| 2026-05-08 13:31 | 48.99569 | 2.59971 | 355 ft | 7 kts | 17° |
| 2026-05-08 13:31 | 48.99591 | 2.59978 | 360 ft | 2 kts | 11° |
| 2026-05-08 13:32 | 48.99602 | 2.59980 | 358 ft | 3 kts | 4° |
| 2026-05-08 13:32 | 48.99656 | 2.59975 | 357 ft | 9 kts | 355° |
| 2026-05-08 13:32 | 48.99716 | 2.59967 | 354 ft | 9 kts | 355° |
| 2026-05-08 13:32 | 48.99779 | 2.59960 | 359 ft | 10 kts | 356° |
| 2026-05-08 13:33 | 48.99849 | 2.59955 | 354 ft | 11 kts | 4° |
| 2026-05-08 13:33 | 48.99903 | 2.60013 | 358 ft | 7 kts | 54° |
| 2026-05-08 13:33 | 48.99937 | 2.60063 | 356 ft | 7 kts | 32° |
| 2026-05-08 13:33 | 48.99986 | 2.60066 | 354 ft | 8 kts | 335° |
| 2026-05-08 13:34 | 49.00026 | 2.60017 | 358 ft | 7 kts | 326° |
| 2026-05-08 13:34 | 49.00074 | 2.59988 | 357 ft | 10 kts | 335° |
| 2026-05-08 13:34 | 49.00094 | 2.59866 | 354 ft | 16 kts | 265° |
| 2026-05-08 13:34 | 49.00085 | 2.59684 | 354 ft | 19 kts | 265° |
| 2026-05-08 13:35 | 49.00073 | 2.59474 | 357 ft | 21 kts | 265° |
| 2026-05-08 13:35 | 49.00061 | 2.59256 | 359 ft | 20 kts | 265° |
| 2026-05-08 13:35 | 49.00050 | 2.59057 | 354 ft | 13 kts | 265° |
| 2026-05-08 13:35 | 49.00043 | 2.58926 | 356 ft | 12 kts | 265° |
| 2026-05-08 13:36 | 49.00037 | 2.58810 | 354 ft | 10 kts | 266° |
| 2026-05-08 13:36 | 49.00032 | 2.58707 | 354 ft | 10 kts | 264° |
| 2026-05-08 13:36 | 49.00023 | 2.58549 | 354 ft | 20 kts | 265° |
| 2026-05-08 13:36 | 49.00010 | 2.58291 | 359 ft | 27 kts | 265° |
| 2026-05-08 13:37 | 48.99997 | 2.58034 | 354 ft | 27 kts | 265° |
| 2026-05-08 13:37 | 48.99983 | 2.57778 | 354 ft | 15 kts | 265° |
| 2026-05-08 13:37 | 48.99972 | 2.57585 | 357 ft | 21 kts | 265° |
| 2026-05-08 13:37 | 48.99960 | 2.57382 | 357 ft | 15 kts | 266° |
| 2026-05-08 13:38 | 48.99951 | 2.57191 | 354 ft | 21 kts | 265° |
| 2026-05-08 13:38 | 48.99939 | 2.56975 | 354 ft | 22 kts | 265° |
| 2026-05-08 13:38 | 48.99924 | 2.56717 | 354 ft | 27 kts | 265° |
| 2026-05-08 13:38 | 48.99909 | 2.56440 | 358 ft | 20 kts | 266° |
| 2026-05-08 13:39 | 48.99902 | 2.56252 | 358 ft | 14 kts | 266° |
| 2026-05-08 13:39 | 48.99892 | 2.56072 | 354 ft | 20 kts | 264° |
| 2026-05-08 13:39 | 48.99904 | 2.55870 | 361 ft | 21 kts | 284° |
| 2026-05-08 13:39 | 48.99971 | 2.55684 | 356 ft | 21 kts | 334° |
| 2026-05-08 13:40 | 49.00098 | 2.55622 | 356 ft | 20 kts | 343° |
| 2026-05-08 13:40 | 49.00252 | 2.55557 | 360 ft | 25 kts | 345° |
| 2026-05-08 13:40 | 49.00386 | 2.55497 | 362 ft | 17 kts | 342° |
| 2026-05-08 13:40 | 49.00481 | 2.55466 | 354 ft | 10 kts | 8° |
| 2026-05-08 13:41 | 49.00543 | 2.55546 | 359 ft | 14 kts | 65° |
| 2026-05-08 13:41 | 49.00561 | 2.55714 | 361 ft | 14 kts | 87° |
| 2026-05-08 13:41 | 49.00569 | 2.55873 | 360 ft | 12 kts | 84° |
| 2026-05-08 13:41 | 49.00583 | 2.55989 | 361 ft | 9 kts | 70° |
| 2026-05-08 13:42 | 49.00603 | 2.56074 | 354 ft | 8 kts | 75° |
| 2026-05-08 13:42 | 49.00610 | 2.56141 | 357 ft | 3 kts | 84° |
| 2026-05-08 13:42 | 49.00607 | 2.56151 | 361 ft | 3 kts | 111° |
| 2026-05-08 13:42 | 49.00577 | 2.56162 | 359 ft | 7 kts | 184° |
| 2026-05-08 13:43 | 49.00546 | 2.56163 | 358 ft | 0 kts | 172° |
| 2026-05-08 13:43 | 49.00536 | 2.56165 | 356 ft | 1 kts | 173° |
| 2026-05-08 13:43 | 49.00532 | 2.56166 | 361 ft | 0 kts | 173° |